createdAt,value
2023-06-11T00:00:22.679Z,64.82
2023-06-11T00:03:24.814Z,63.96
2023-06-11T00:06:27.112Z,62.94
2023-06-11T00:09:29.801Z,64.68
2023-06-11T00:12:33.876Z,65.33
2023-06-11T00:15:36.063Z,65.04
2023-06-11T00:18:41.897Z,65.05
2023-06-11T00:21:45.058Z,64.35
2023-06-11T00:24:47.467Z,64.84
2023-06-11T00:27:49.436Z,66.81
2023-06-11T00:30:51.336Z,68.98
2023-06-11T00:33:53.409Z,65.87
2023-06-11T00:36:55.322Z,66.46
2023-06-11T00:39:57.510Z,65.10
2023-06-11T00:42:59.382Z,67.84
2023-06-11T00:46:03.684Z,65.62
2023-06-11T00:49:05.913Z,65.67
2023-06-11T00:52:11.834Z,65.65
2023-06-11T00:55:14.214Z,68.12
2023-06-11T00:58:18.691Z,67.92
2023-06-11T01:01:27.634Z,67.72
2023-06-11T01:04:30.572Z,67.18
2023-06-11T01:07:35.382Z,66.81
2023-06-11T01:10:37.308Z,66.47
2023-06-11T01:13:39.276Z,69.13
2023-06-11T01:16:49.149Z,69.67
2023-06-11T01:19:54.140Z,70.21
2023-06-11T01:23:15.504Z,67.87
2023-06-11T01:26:19.733Z,67.15
2023-06-11T01:29:21.751Z,67.93
2023-06-11T01:32:26.079Z,69.26
2023-06-11T01:35:28.475Z,66.73
2023-06-11T01:38:36.227Z,66.36
2023-06-11T01:41:38.250Z,65.14
2023-06-11T01:44:40.234Z,67.00
2023-06-11T01:47:44.424Z,65.69
2023-06-11T01:50:46.642Z,66.15
2023-06-11T01:53:48.707Z,66.17
2023-06-11T01:56:51.098Z,68.21
2023-06-11T01:59:52.959Z,67.76
2023-06-11T02:02:54.891Z,66.39
2023-06-11T02:05:56.826Z,65.91
2023-06-11T02:08:58.656Z,65.36
2023-06-11T02:12:00.773Z,65.45
2023-06-11T02:15:02.652Z,65.72
2023-06-11T02:18:04.643Z,66.37
2023-06-11T02:21:06.588Z,67.65
2023-06-11T02:24:08.613Z,66.62
2023-06-11T02:27:10.933Z,65.89
2023-06-11T02:30:13.143Z,64.96
2023-06-11T02:33:15.036Z,66.15
2023-06-11T02:36:16.873Z,65.98
2023-06-11T02:39:19.019Z,66.33
2023-06-11T02:42:23.017Z,66.08
2023-06-11T02:45:25.011Z,64.71
2023-06-11T02:48:26.846Z,65.48
2023-06-11T02:51:28.781Z,63.75
2023-06-11T02:54:32.831Z,64.83
2023-06-11T02:57:35.136Z,64.46
2023-06-11T03:00:37.230Z,63.19
2023-06-11T03:03:39.117Z,62.63
2023-06-11T03:06:43.242Z,65.24
2023-06-11T03:09:47.445Z,64.56
2023-06-11T03:12:49.326Z,63.57
2023-06-11T03:15:51.342Z,64.45
2023-06-11T03:18:53.414Z,65.28
2023-06-11T03:21:55.573Z,64.40
2023-06-11T03:24:57.456Z,63.50
2023-06-11T03:27:59.433Z,62.45
2023-06-11T03:31:01.585Z,64.30
2023-06-11T03:34:04.437Z,67.86
2023-06-11T03:37:06.469Z,65.27
2023-06-11T03:40:08.989Z,66.58
2023-06-11T03:43:10.899Z,65.30
2023-06-11T03:46:12.871Z,64.54
2023-06-11T03:49:14.802Z,62.89
2023-06-11T03:52:17.526Z,63.41
2023-06-11T03:55:22.432Z,62.39
2023-06-11T03:58:27.156Z,62.94
2023-06-11T04:01:29.142Z,64.34
2023-06-11T04:04:31.236Z,61.91
2023-06-11T04:07:33.435Z,62.42
2023-06-11T04:10:35.559Z,63.03
2023-06-11T04:13:37.521Z,62.85
2023-06-11T04:16:41.971Z,62.56
2023-06-11T04:19:43.844Z,65.79
2023-06-11T04:22:45.947Z,63.30
2023-06-11T04:25:50.216Z,63.48
2023-06-11T04:28:54.137Z,63.29
2023-06-11T04:31:56.184Z,62.63
2023-06-11T04:34:58.246Z,63.36
2023-06-11T04:38:00.222Z,61.77
2023-06-11T04:41:05.752Z,60.53
2023-06-11T04:44:07.877Z,59.73
2023-06-11T04:47:09.768Z,59.14
2023-06-11T04:50:11.717Z,62.13
2023-06-11T04:53:14.067Z,61.52
2023-06-11T04:56:16.226Z,58.42
2023-06-11T04:59:18.136Z,58.91
2023-06-11T05:02:20.862Z,60.19
2023-06-11T05:05:22.798Z,58.91
2023-06-11T05:08:28.158Z,61.90
2023-06-11T05:11:30.058Z,58.93
2023-06-11T05:14:31.920Z,60.29
2023-06-11T05:17:34.169Z,59.45
2023-06-11T05:20:36.723Z,61.04
2023-06-11T05:23:40.412Z,60.90
2023-06-11T05:26:42.333Z,59.58
2023-06-11T05:29:46.218Z,58.74
2023-06-11T05:32:48.451Z,58.74
2023-06-11T05:35:52.309Z,58.80
2023-06-11T05:38:54.462Z,57.58
2023-06-11T05:41:56.461Z,55.63
2023-06-11T05:44:58.421Z,57.80
2023-06-11T05:48:00.764Z,55.80
2023-06-11T05:51:02.775Z,55.66
2023-06-11T05:54:05.592Z,57.01
2023-06-11T05:57:17.962Z,56.77
2023-06-11T06:00:19.922Z,56.98
2023-06-11T06:03:22.252Z,54.55
2023-06-11T06:06:24.213Z,53.06
2023-06-11T06:09:26.119Z,54.62
2023-06-11T06:12:28.065Z,51.90
2023-06-11T06:15:29.916Z,52.53
2023-06-11T06:18:33.592Z,50.10
2023-06-11T06:21:35.867Z,47.20
2023-06-11T06:24:37.776Z,48.72
2023-06-11T06:27:39.695Z,46.64
2023-06-11T06:30:41.588Z,46.70
2023-06-11T06:33:43.615Z,46.59
2023-06-11T06:36:46.263Z,48.99
2023-06-11T06:39:48.242Z,45.47
2023-06-11T06:42:50.223Z,45.84
2023-06-11T06:45:52.111Z,44.58
2023-06-11T06:48:54.113Z,47.22
2023-06-11T06:51:58.572Z,45.91
2023-06-11T06:55:00.433Z,45.52
2023-06-11T06:58:02.463Z,48.32
2023-06-11T07:01:06.659Z,48.30
2023-06-11T07:04:08.590Z,48.14
2023-06-11T07:07:10.949Z,47.06
2023-06-11T07:10:13.499Z,49.72
2023-06-11T07:13:16.702Z,49.41
2023-06-11T07:16:18.882Z,49.06
2023-06-11T07:19:20.942Z,47.10
2023-06-11T07:22:22.875Z,47.70
2023-06-11T07:25:24.734Z,49.01
2023-06-11T07:28:26.896Z,46.83
2023-06-11T07:31:28.886Z,45.60
2023-06-11T07:34:30.768Z,42.86
2023-06-11T07:37:33.203Z,41.91
2023-06-11T07:40:35.160Z,40.00
2023-06-11T07:43:37.226Z,41.03
2023-06-11T07:46:39.117Z,38.46
2023-06-11T07:49:41.188Z,38.73
2023-06-11T07:52:43.162Z,36.88
2023-06-11T07:55:45.022Z,38.19
2023-06-11T07:58:46.965Z,38.79
2023-06-11T08:01:48.987Z,37.76
2023-06-11T08:04:51.468Z,38.09
2023-06-11T08:07:53.485Z,40.86
2023-06-11T08:10:55.706Z,40.52
2023-06-11T08:13:57.639Z,39.71
2023-06-11T08:16:59.765Z,40.63
2023-06-11T08:20:01.935Z,40.00
2023-06-11T08:23:03.880Z,38.11
2023-06-11T08:26:06.244Z,39.36
2023-06-11T08:29:08.119Z,41.43
2023-06-11T08:32:10.237Z,41.51
2023-06-11T08:35:12.203Z,41.64
2023-06-11T08:38:14.310Z,41.39
2023-06-11T08:41:17.124Z,43.36
2023-06-11T08:44:19.113Z,43.64
2023-06-11T08:47:21.098Z,42.62
2023-06-11T08:50:23.369Z,43.90
2023-06-11T08:53:26.944Z,43.41
2023-06-11T08:56:29.152Z,43.58
2023-06-11T08:59:31.038Z,42.82
2023-06-11T09:02:33.053Z,43.02
2023-06-11T09:05:36.507Z,45.45
2023-06-11T09:08:38.436Z,45.91
2023-06-11T09:11:40.634Z,44.21
2023-06-11T09:14:51.596Z,41.78
2023-06-11T09:17:53.427Z,42.04
2023-06-11T09:21:02.277Z,42.33
2023-06-11T09:24:10.599Z,43.03
2023-06-11T09:27:13.246Z,42.28
2023-06-11T09:30:18.558Z,41.01
2023-06-11T09:33:20.649Z,43.26
2023-06-11T09:36:23.099Z,42.62
2023-06-11T09:39:25.131Z,43.11
2023-06-11T09:42:27.919Z,40.58
2023-06-11T09:45:32.829Z,43.00
2023-06-11T09:48:34.849Z,42.42
2023-06-11T09:51:36.975Z,42.75
2023-06-11T09:54:39.115Z,41.21
2023-06-11T09:57:41.662Z,40.08
2023-06-11T10:00:44.289Z,42.15
2023-06-11T10:03:46.940Z,39.54
2023-06-11T10:06:49.332Z,36.41
2023-06-11T10:09:51.878Z,35.18
2023-06-11T10:12:54.456Z,33.04
2023-06-11T10:15:58.773Z,34.54
2023-06-11T10:19:07.774Z,33.05
2023-06-11T10:22:09.837Z,35.55
2023-06-11T10:25:11.848Z,38.78
2023-06-11T10:28:14.501Z,37.47
2023-06-11T10:31:26.447Z,37.44
2023-06-11T10:34:30.591Z,35.76
2023-06-11T10:37:36.817Z,37.42
2023-06-11T10:40:39.106Z,37.33
2023-06-11T10:43:41.772Z,41.83
2023-06-11T10:46:47.492Z,38.99
2023-06-11T10:49:50.416Z,41.54
2023-06-11T10:52:53.301Z,40.07
2023-06-11T10:55:55.224Z,40.00
2023-06-11T10:58:57.327Z,42.37
2023-06-11T11:01:59.217Z,42.38
2023-06-11T11:05:01.368Z,41.46
2023-06-11T11:08:05.409Z,42.40
2023-06-11T11:11:09.818Z,43.82
2023-06-11T11:14:11.756Z,44.93
2023-06-11T11:17:16.223Z,43.09
2023-06-11T11:20:18.804Z,43.17
2023-06-11T11:23:20.914Z,43.05
2023-06-11T11:26:22.904Z,44.29
2023-06-11T11:29:25.124Z,46.27
2023-06-11T11:32:27.932Z,44.16
2023-06-11T11:35:30.231Z,44.69
2023-06-11T11:38:36.865Z,46.35
2023-06-11T11:41:48.814Z,42.97
2023-06-11T11:44:51.025Z,44.13
2023-06-11T11:47:53.429Z,44.36
2023-06-11T11:51:07.814Z,42.82
2023-06-11T11:54:13.914Z,43.58
2023-06-11T11:57:19.736Z,43.37
2023-06-11T12:00:27.668Z,44.43
2023-06-11T12:03:29.961Z,46.86
2023-06-11T12:06:32.282Z,44.53
2023-06-11T12:09:38.445Z,43.63
2023-06-11T12:12:40.311Z,45.49
2023-06-11T12:15:42.300Z,43.47
2023-06-11T12:18:44.484Z,44.33
2023-06-11T12:21:49.080Z,43.77
2023-06-11T12:24:51.957Z,46.02
2023-06-11T12:27:55.532Z,45.05
2023-06-11T12:30:58.172Z,44.54
2023-06-11T12:34:00.203Z,44.49
2023-06-11T12:37:02.410Z,43.77
2023-06-11T12:40:05.475Z,43.80
2023-06-11T12:43:07.458Z,43.73
2023-06-11T12:46:11.808Z,42.85
2023-06-11T12:49:14.456Z,42.62
2023-06-11T12:52:16.843Z,42.05
2023-06-11T12:55:21.943Z,44.43
2023-06-11T12:58:23.881Z,45.44
2023-06-11T13:01:25.838Z,44.06
2023-06-11T13:04:28.044Z,44.95
2023-06-11T13:07:30.008Z,44.37
2023-06-11T13:10:31.862Z,45.23
2023-06-11T13:13:33.823Z,44.65
2023-06-11T13:16:36.079Z,41.84
2023-06-11T13:19:38.003Z,42.43
2023-06-11T13:22:39.956Z,43.02
2023-06-11T13:25:41.911Z,41.46
2023-06-11T13:28:45.234Z,43.00
2023-06-11T13:31:47.283Z,43.14
2023-06-11T13:34:49.332Z,42.72
2023-06-11T13:37:51.464Z,41.13
2023-06-11T13:40:53.391Z,40.49
2023-06-11T13:43:55.593Z,42.19
2023-06-11T13:46:57.595Z,41.47
2023-06-11T13:49:59.500Z,41.37
2023-06-11T13:53:03.822Z,40.82
2023-06-11T13:56:07.455Z,40.55
2023-06-11T13:59:09.322Z,40.48
2023-06-11T14:02:11.374Z,42.89
2023-06-11T14:05:13.390Z,42.78
2023-06-11T14:08:18.954Z,44.55
2023-06-11T14:11:21.140Z,42.15
2023-06-11T14:14:24.372Z,43.18
2023-06-11T14:17:26.647Z,42.88
2023-06-11T14:20:28.785Z,44.03
2023-06-11T14:23:33.540Z,43.67
2023-06-11T14:26:35.596Z,42.38
2023-06-11T14:29:37.585Z,42.57
2023-06-11T14:32:39.658Z,42.85
2023-06-11T14:35:42.755Z,42.74
2023-06-11T14:38:44.864Z,43.46
2023-06-11T14:41:46.769Z,43.44
2023-06-11T14:44:51.395Z,43.65
2023-06-11T14:47:53.430Z,44.16
2023-06-11T14:50:55.830Z,43.78
2023-06-11T14:53:58.449Z,43.42
2023-06-11T14:57:00.681Z,41.68
2023-06-11T15:00:05.626Z,43.03
2023-06-11T15:03:11.996Z,43.46
2023-06-11T15:06:14.875Z,42.16
2023-06-11T15:09:16.903Z,42.97
2023-06-11T15:12:18.844Z,43.70
2023-06-11T15:15:21.012Z,42.58
2023-06-11T15:18:23.010Z,41.55
2023-06-11T15:21:24.947Z,42.75
2023-06-11T15:24:26.883Z,42.76
2023-06-11T15:27:28.724Z,43.07
2023-06-11T15:30:30.750Z,41.92
2023-06-11T15:33:33.146Z,41.70
2023-06-11T15:36:35.026Z,42.31
2023-06-11T15:39:36.979Z,43.75
2023-06-11T15:42:40.110Z,41.88
2023-06-11T15:45:42.110Z,41.67
2023-06-11T15:48:44.069Z,43.14
2023-06-11T15:51:47.781Z,43.11
2023-06-11T15:54:51.043Z,42.26
2023-06-11T15:57:53.072Z,43.45
2023-06-11T16:00:55.140Z,43.66
2023-06-11T16:03:58.954Z,45.22
2023-06-11T16:07:06.414Z,43.11
2023-06-11T16:10:10.089Z,43.61
2023-06-11T16:13:14.234Z,43.91
2023-06-11T16:16:16.173Z,43.61
2023-06-11T16:19:18.317Z,43.62
2023-06-11T16:22:20.361Z,44.16
2023-06-11T16:25:22.273Z,43.68
2023-06-11T16:28:24.225Z,42.75
2023-06-11T16:31:26.225Z,44.77
2023-06-11T16:34:28.366Z,45.70
2023-06-11T16:37:30.278Z,46.24
2023-06-11T16:40:32.297Z,45.46
2023-06-11T16:43:34.307Z,44.27
2023-06-11T16:46:36.294Z,44.71
2023-06-11T16:49:38.309Z,44.39
2023-06-11T16:52:40.183Z,43.98
2023-06-11T16:55:43.446Z,43.33
2023-06-11T16:58:45.609Z,43.51
2023-06-11T17:01:47.461Z,44.76
2023-06-11T17:04:49.496Z,43.78
2023-06-11T17:07:58.268Z,44.74
2023-06-11T17:11:01.839Z,44.91
2023-06-11T17:14:03.759Z,46.01
2023-06-11T17:17:06.103Z,46.59
2023-06-11T17:20:08.418Z,44.62
2023-06-11T17:23:11.582Z,46.00
2023-06-11T17:26:16.461Z,45.43
2023-06-11T17:29:19.358Z,46.00
2023-06-11T17:32:23.548Z,43.33
2023-06-11T17:35:25.604Z,45.73
2023-06-11T17:38:30.036Z,44.88
2023-06-11T17:41:32.160Z,44.91
2023-06-11T17:44:34.289Z,46.30
2023-06-11T17:47:37.889Z,46.38
2023-06-11T17:50:39.993Z,45.56
2023-06-11T17:53:41.900Z,45.52
2023-06-11T17:56:44.242Z,46.04
2023-06-11T17:59:46.174Z,45.79
2023-06-11T18:02:48.270Z,47.08
2023-06-11T18:05:50.564Z,45.93
2023-06-11T18:08:52.475Z,46.32
2023-06-11T18:11:54.410Z,47.69
2023-06-11T18:14:56.385Z,47.27
2023-06-11T18:17:58.460Z,45.81
2023-06-11T18:21:00.464Z,46.70
2023-06-11T18:24:02.447Z,45.52
2023-06-11T18:27:07.250Z,45.79
2023-06-11T18:30:09.469Z,47.56
2023-06-11T18:33:11.586Z,46.53
2023-06-11T18:36:13.534Z,45.17
2023-06-11T18:39:15.540Z,44.11
2023-06-11T18:42:17.975Z,45.17
2023-06-11T18:45:19.980Z,46.65
2023-06-11T18:48:21.960Z,48.08
2023-06-11T18:51:23.915Z,45.50
2023-06-11T18:54:25.877Z,47.48
2023-06-11T18:57:28.940Z,47.09
2023-06-11T19:00:30.903Z,47.49
2023-06-11T19:03:35.488Z,47.56
2023-06-11T19:06:40.293Z,47.78
2023-06-11T19:09:42.210Z,45.82
2023-06-11T19:12:44.337Z,45.76
2023-06-11T19:15:46.534Z,46.23
2023-06-11T19:18:48.457Z,46.58
2023-06-11T19:21:50.426Z,46.35
2023-06-11T19:24:52.401Z,45.92
2023-06-11T19:27:54.445Z,47.42
2023-06-11T19:30:56.435Z,46.46
2023-06-11T19:33:58.342Z,46.39
2023-06-11T19:37:00.369Z,47.10
2023-06-11T19:40:02.491Z,47.23
2023-06-11T19:43:04.526Z,48.47
2023-06-11T19:46:06.484Z,48.28
2023-06-11T19:49:08.427Z,49.44
2023-06-11T19:52:10.432Z,49.32
2023-06-11T19:55:17.608Z,50.27
2023-06-11T19:58:19.582Z,50.57
2023-06-11T20:01:21.826Z,50.91
2023-06-11T20:04:23.784Z,49.92
2023-06-11T20:07:26.309Z,50.20
2023-06-11T20:10:37.193Z,50.11
2023-06-11T20:13:44.067Z,51.92
2023-06-11T20:16:46.821Z,50.78
2023-06-11T20:19:49.261Z,51.20
2023-06-11T20:22:51.274Z,51.53
2023-06-11T20:25:53.141Z,51.65
2023-06-11T20:28:55.167Z,51.93
2023-06-11T20:31:57.281Z,52.75
2023-06-11T20:34:59.343Z,52.37
2023-06-11T20:38:01.281Z,53.36
2023-06-11T20:41:03.743Z,53.30
2023-06-11T20:44:05.709Z,52.44
2023-06-11T20:47:08.222Z,52.93
2023-06-11T20:50:10.565Z,51.75
2023-06-11T20:53:28.072Z,50.00
2023-06-11T20:56:34.667Z,50.52
2023-06-11T20:59:36.626Z,49.84
2023-06-11T21:02:38.618Z,49.29
2023-06-11T21:05:42.621Z,49.26
2023-06-11T21:08:44.604Z,48.93
2023-06-11T21:11:46.513Z,49.49
2023-06-11T21:14:48.477Z,50.98
2023-06-11T21:17:50.680Z,50.92
2023-06-11T21:20:52.672Z,51.72
2023-06-11T21:23:54.669Z,51.11
2023-06-11T21:26:56.684Z,51.04
2023-06-11T21:29:58.636Z,50.59
2023-06-11T21:33:00.728Z,51.98
2023-06-11T21:36:02.809Z,49.87
2023-06-11T21:39:04.830Z,52.49
2023-06-11T21:42:07.273Z,52.74
2023-06-11T21:45:09.272Z,51.94
2023-06-11T21:48:11.237Z,50.97
2023-06-11T21:51:13.186Z,51.80
2023-06-11T21:54:15.192Z,51.84
2023-06-11T21:57:17.190Z,52.64
2023-06-11T22:00:20.189Z,51.42
2023-06-11T22:03:23.972Z,53.34
2023-06-11T22:06:26.118Z,52.22
2023-06-11T22:09:28.354Z,52.77
2023-06-11T22:12:41.023Z,53.28
2023-06-11T22:15:45.138Z,54.06
2023-06-11T22:18:49.793Z,52.93
2023-06-11T22:21:52.280Z,54.18
2023-06-11T22:24:54.163Z,53.25
2023-06-11T22:27:58.745Z,53.71
2023-06-11T22:31:00.849Z,53.82
2023-06-11T22:34:02.839Z,53.93
2023-06-11T22:37:04.886Z,54.46
2023-06-11T22:40:07.260Z,52.37
2023-06-11T22:43:11.065Z,53.35
2023-06-11T22:46:13.338Z,52.65
2023-06-11T22:49:15.378Z,50.79
2023-06-11T22:52:20.468Z,53.01
2023-06-11T22:55:22.536Z,53.62
2023-06-11T22:58:24.441Z,54.33
2023-06-11T23:01:26.643Z,51.66
2023-06-11T23:04:29.776Z,54.96
2023-06-11T23:07:32.390Z,54.93
2023-06-11T23:10:36.742Z,53.93
2023-06-11T23:13:38.576Z,54.92
2023-06-11T23:16:42.078Z,52.31
2023-06-11T23:19:44.693Z,53.94
2023-06-11T23:22:48.425Z,53.89
2023-06-11T23:25:50.823Z,54.00
2023-06-11T23:28:52.758Z,53.33
2023-06-11T23:31:54.827Z,54.28
2023-06-11T23:35:00.766Z,53.37
2023-06-11T23:38:04.009Z,54.35
2023-06-11T23:41:06.156Z,53.12
2023-06-11T23:44:08.298Z,53.83
2023-06-11T23:47:10.248Z,54.04
2023-06-11T23:50:12.445Z,52.34
2023-06-11T23:53:14.542Z,53.05
2023-06-11T23:56:16.421Z,54.49
2023-06-11T23:59:18.285Z,54.41
